METAR Data
IDs: Format: Raw Decoded Include TAF

Data at: 2031 UTC 02 Oct 2022

METAR for:LFQA (Reims/Prunay Aprt, GE, FR)
Text:LFQA 022000Z AUTO 31003KT CAVOK 11/11 Q1025
Temperature: 11.0°C ( 52°F)
Dewpoint: 11.0°C ( 52°F) [RH = 100%]
Pressure (altimeter):30.27 inches Hg (1025.0 mb)
Winds:from the NW (310 degrees) at 3 MPH (3 knots; 1.5 m/s)
Visibility:6 or more sm (10+ km)
Ceiling:ceiling and visibility are OK
Clouds:unknown

TAF for:LFQA (Reims/Prunay Aprt, GE, FR)
Text:No data found